createdAt,value
2023-02-26T00:02:02.164Z,86.53
2023-02-26T00:04:29.156Z,86.69
2023-02-26T00:06:59.360Z,86.57
2023-02-26T00:09:26.853Z,86.67
2023-02-26T00:11:54.200Z,86.48
2023-02-26T00:14:21.742Z,86.51
2023-02-26T00:17:06.818Z,86.37
2023-02-26T00:19:34.154Z,86.57
2023-02-26T00:22:01.135Z,86.46
2023-02-26T00:24:27.985Z,86.59
2023-02-26T00:26:54.981Z,86.46
2023-02-26T00:29:22.021Z,86.21
2023-02-26T00:31:49.229Z,86.31
2023-02-26T00:34:16.367Z,86.13
2023-02-26T00:37:05.681Z,86.34
2023-02-26T00:39:39.041Z,86.17
2023-02-26T00:42:07.888Z,86.20
2023-02-26T00:44:38.053Z,86.32
2023-02-26T00:48:00.551Z,86.11
2023-02-26T00:50:30.330Z,86.13
2023-02-26T00:53:00.247Z,86.41
2023-02-26T00:55:28.573Z,86.33
2023-02-26T00:57:56.631Z,86.31
2023-02-26T01:00:24.008Z,86.25
2023-02-26T01:02:51.340Z,86.17
2023-02-26T01:05:19.676Z,86.20
2023-02-26T01:08:15.900Z,86.19
2023-02-26T01:10:42.974Z,86.28
2023-02-26T01:13:10.036Z,86.22
2023-02-26T01:15:39.575Z,86.22
2023-02-26T01:18:14.839Z,86.25
2023-02-26T01:21:03.705Z,86.08
2023-02-26T01:23:33.584Z,85.99
2023-02-26T01:26:04.576Z,86.26
2023-02-26T01:28:31.687Z,86.10
2023-02-26T01:31:04.193Z,85.85
2023-02-26T01:33:52.890Z,85.85
2023-02-26T01:36:23.716Z,86.02
2023-02-26T01:39:08.629Z,85.62
2023-02-26T01:41:50.516Z,85.66
2023-02-26T01:44:26.164Z,85.90
2023-02-26T01:47:19.432Z,85.72
2023-02-26T01:49:50.259Z,85.58
2023-02-26T01:52:50.591Z,85.51
2023-02-26T01:55:20.893Z,85.57
2023-02-26T01:57:48.727Z,85.63
2023-02-26T02:00:16.768Z,85.67
2023-02-26T02:02:44.008Z,85.44
2023-02-26T02:05:18.796Z,85.42
2023-02-26T02:07:47.277Z,85.22
2023-02-26T02:10:14.113Z,85.15
2023-02-26T02:12:57.185Z,85.38
2023-02-26T02:15:33.935Z,85.02
2023-02-26T02:18:17.887Z,85.28
2023-02-26T02:21:13.528Z,85.07
2023-02-26T02:24:28.329Z,85.01
2023-02-26T02:26:59.682Z,85.03
2023-02-26T02:29:35.116Z,85.00
2023-02-26T02:32:10.681Z,84.96
2023-02-26T02:34:51.921Z,84.93
2023-02-26T02:37:27.969Z,85.12
2023-02-26T02:40:05.540Z,85.03
2023-02-26T02:42:45.440Z,85.19
2023-02-26T02:45:25.564Z,84.94
2023-02-26T02:48:03.287Z,85.20
2023-02-26T02:50:50.904Z,85.03
2023-02-26T02:53:22.379Z,84.97
2023-02-26T02:56:05.250Z,84.92
2023-02-26T02:58:39.649Z,85.12
2023-02-26T03:01:13.105Z,85.11
2023-02-26T03:04:01.725Z,84.88
2023-02-26T03:06:31.325Z,84.90
2023-02-26T03:09:00.519Z,85.10
2023-02-26T03:11:30.771Z,85.06
2023-02-26T03:13:58.071Z,84.90
2023-02-26T03:16:45.313Z,84.85
2023-02-26T03:19:23.574Z,84.99
2023-02-26T03:22:41.145Z,84.83
2023-02-26T03:25:29.819Z,84.71
2023-02-26T03:28:17.639Z,84.73
2023-02-26T03:31:00.423Z,84.92
2023-02-26T03:33:38.453Z,84.89
2023-02-26T03:36:23.592Z,84.61
2023-02-26T03:39:12.881Z,84.96
2023-02-26T03:41:52.860Z,84.57
2023-02-26T03:44:27.268Z,84.52
2023-02-26T03:47:06.657Z,84.56
2023-02-26T03:49:40.581Z,84.52
2023-02-26T03:52:07.945Z,84.76
2023-02-26T03:54:54.557Z,84.47
2023-02-26T03:57:50.890Z,84.52
2023-02-26T04:00:42.763Z,84.45
2023-02-26T04:03:20.653Z,84.35
2023-02-26T04:05:52.280Z,84.34
2023-02-26T04:08:22.007Z,84.55
2023-02-26T04:10:55.396Z,84.25
2023-02-26T04:13:22.408Z,84.26
2023-02-26T04:15:53.284Z,84.36
2023-02-26T04:18:22.899Z,84.22
2023-02-26T04:20:50.212Z,84.39
2023-02-26T04:23:19.540Z,84.41
2023-02-26T04:25:46.735Z,84.37
2023-02-26T04:28:18.041Z,84.23
2023-02-26T04:30:45.173Z,84.05
2023-02-26T04:33:14.802Z,84.33
2023-02-26T04:35:44.710Z,84.38
2023-02-26T04:38:12.082Z,84.16
2023-02-26T04:40:45.031Z,84.06
2023-02-26T04:43:13.903Z,83.95
2023-02-26T04:45:49.398Z,84.01
2023-02-26T04:48:16.872Z,83.78
2023-02-26T04:50:47.326Z,84.07
2023-02-26T04:53:19.177Z,83.92
2023-02-26T04:55:50.191Z,83.64
2023-02-26T04:58:18.507Z,83.87
2023-02-26T05:00:54.929Z,83.74
2023-02-26T05:03:22.228Z,83.38
2023-02-26T05:05:49.285Z,83.26
2023-02-26T05:08:16.509Z,83.38
2023-02-26T05:10:43.334Z,83.41
2023-02-26T05:13:11.111Z,83.54
2023-02-26T05:15:37.930Z,83.06
2023-02-26T05:18:04.908Z,83.08
2023-02-26T05:20:31.796Z,83.14
2023-02-26T05:22:59.159Z,83.10
2023-02-26T05:25:29.197Z,83.16
2023-02-26T05:27:56.926Z,82.92
2023-02-26T05:30:24.319Z,82.83
2023-02-26T05:32:51.151Z,82.97
2023-02-26T05:35:18.016Z,82.81
2023-02-26T05:37:44.922Z,83.06
2023-02-26T05:40:12.377Z,82.79
2023-02-26T05:42:39.713Z,83.05
2023-02-26T05:45:07.272Z,83.15
2023-02-26T05:47:34.655Z,83.06
2023-02-26T05:50:01.727Z,82.65
2023-02-26T05:52:34.312Z,82.48
2023-02-26T05:55:04.297Z,82.41
2023-02-26T05:57:31.298Z,82.21
2023-02-26T05:59:58.057Z,81.99
2023-02-26T06:02:24.914Z,81.78
2023-02-26T06:04:51.665Z,81.71
2023-02-26T06:07:18.477Z,81.56
2023-02-26T06:09:45.431Z,81.62
2023-02-26T06:12:30.079Z,81.67
2023-02-26T06:14:56.830Z,81.59
2023-02-26T06:17:23.566Z,81.51
2023-02-26T06:19:50.237Z,81.48
2023-02-26T06:22:16.947Z,81.36
2023-02-26T06:24:43.995Z,81.13
2023-02-26T06:27:13.203Z,81.22
2023-02-26T06:29:40.136Z,81.02
2023-02-26T06:32:07.282Z,80.99
2023-02-26T06:34:34.471Z,80.90
2023-02-26T06:37:01.323Z,80.88
2023-02-26T06:39:27.993Z,81.19
2023-02-26T06:41:54.669Z,80.92
2023-02-26T06:44:21.403Z,80.89
2023-02-26T06:46:48.075Z,80.81
2023-02-26T06:49:14.960Z,80.97
2023-02-26T06:51:41.976Z,80.62
2023-02-26T06:54:11.720Z,80.56
2023-02-26T06:56:38.452Z,80.54
2023-02-26T06:59:05.809Z,80.53
2023-02-26T07:01:33.066Z,80.62
2023-02-26T07:03:59.815Z,80.52
2023-02-26T07:06:28.087Z,80.51
2023-02-26T07:08:55.768Z,80.16
2023-02-26T07:11:22.686Z,80.30
2023-02-26T07:13:49.498Z,80.38
2023-02-26T07:16:37.582Z,80.49
2023-02-26T07:19:04.355Z,80.45
2023-02-26T07:21:42.603Z,80.38
2023-02-26T07:24:21.108Z,80.27
2023-02-26T07:26:47.996Z,80.34
2023-02-26T07:29:14.803Z,80.42
2023-02-26T07:31:41.867Z,80.18
2023-02-26T07:34:08.752Z,80.23
2023-02-26T07:36:35.705Z,80.23
2023-02-26T07:39:02.487Z,80.27
2023-02-26T07:41:29.193Z,79.98
2023-02-26T07:43:56.015Z,79.98
2023-02-26T07:46:22.762Z,79.99
2023-02-26T07:48:49.626Z,79.86
2023-02-26T07:51:16.293Z,79.79
2023-02-26T07:53:43.002Z,79.79
2023-02-26T07:56:10.303Z,79.39
2023-02-26T07:58:37.227Z,79.46
2023-02-26T08:01:04.288Z,79.34
2023-02-26T08:03:32.354Z,79.23
2023-02-26T08:06:00.472Z,79.14
2023-02-26T08:08:27.663Z,78.97
2023-02-26T08:10:54.791Z,78.82
2023-02-26T08:13:21.510Z,78.67
2023-02-26T08:15:48.325Z,78.50
2023-02-26T08:18:15.121Z,78.63
2023-02-26T08:20:44.754Z,78.26
2023-02-26T08:23:11.638Z,78.21
2023-02-26T08:25:38.582Z,78.11
2023-02-26T08:28:05.592Z,77.98
2023-02-26T08:30:32.377Z,77.88
2023-02-26T08:32:59.115Z,77.86
2023-02-26T08:35:25.920Z,77.52
2023-02-26T08:37:52.958Z,77.61
2023-02-26T08:40:19.832Z,77.53
2023-02-26T08:42:46.818Z,77.20
2023-02-26T08:45:13.801Z,77.17
2023-02-26T08:47:55.833Z,77.00
2023-02-26T08:50:29.353Z,76.81
2023-02-26T08:52:59.318Z,76.65
2023-02-26T08:55:28.719Z,76.37
2023-02-26T08:57:55.881Z,76.00
2023-02-26T09:00:22.892Z,75.95
2023-02-26T09:02:50.414Z,75.68
2023-02-26T09:05:17.377Z,75.63
2023-02-26T09:07:45.307Z,75.11
2023-02-26T09:10:13.780Z,74.94
2023-02-26T09:12:40.938Z,75.00
2023-02-26T09:15:09.686Z,74.86
2023-02-26T09:17:37.196Z,74.57
2023-02-26T09:20:04.395Z,74.50
2023-02-26T09:22:31.327Z,74.49
2023-02-26T09:24:58.422Z,74.52
2023-02-26T09:27:25.348Z,74.31
2023-02-26T09:29:52.011Z,74.40
2023-02-26T09:32:18.953Z,74.26
2023-02-26T09:34:46.346Z,74.38
2023-02-26T09:37:13.118Z,74.25
2023-02-26T09:39:39.819Z,73.86
2023-02-26T09:42:27.703Z,73.50
2023-02-26T09:44:58.666Z,73.57
2023-02-26T09:47:37.905Z,73.19
2023-02-26T09:50:19.433Z,72.72
2023-02-26T09:53:09.814Z,72.33
2023-02-26T09:55:48.766Z,72.33
2023-02-26T09:58:26.431Z,72.26
2023-02-26T10:01:13.921Z,72.09
2023-02-26T10:04:14.614Z,71.53
2023-02-26T10:06:59.570Z,70.96
2023-02-26T10:09:42.895Z,70.50
2023-02-26T10:12:13.415Z,70.01
2023-02-26T10:14:57.967Z,69.52
2023-02-26T10:17:42.734Z,69.23
2023-02-26T10:20:37.033Z,69.09
2023-02-26T10:23:17.214Z,68.81
2023-02-26T10:25:54.699Z,68.55
2023-02-26T10:28:48.763Z,68.43
2023-02-26T10:31:22.916Z,68.45
2023-02-26T10:34:17.699Z,67.92
2023-02-26T10:36:51.402Z,67.18
2023-02-26T10:39:38.203Z,66.97
2023-02-26T10:42:16.459Z,66.35
2023-02-26T10:44:51.171Z,66.31
2023-02-26T10:47:21.769Z,66.17
2023-02-26T10:49:48.890Z,66.11
2023-02-26T10:52:17.985Z,65.82
2023-02-26T10:55:03.005Z,65.52
2023-02-26T10:57:36.138Z,65.02
2023-02-26T11:00:06.025Z,65.07
2023-02-26T11:02:41.295Z,64.42
2023-02-26T11:05:17.712Z,63.96
2023-02-26T11:07:50.620Z,63.43
2023-02-26T11:10:20.650Z,63.87
2023-02-26T11:12:47.603Z,63.45
2023-02-26T11:15:23.099Z,63.30
2023-02-26T11:17:54.469Z,63.33
2023-02-26T11:20:38.320Z,63.38
2023-02-26T11:23:07.950Z,62.97
2023-02-26T11:25:36.204Z,62.86
2023-02-26T11:28:10.821Z,62.99
2023-02-26T11:30:38.876Z,62.91
2023-02-26T11:33:29.094Z,62.89
2023-02-26T11:36:01.295Z,63.03
2023-02-26T11:38:28.712Z,63.14
2023-02-26T11:40:57.942Z,62.44
2023-02-26T11:43:28.520Z,61.87
2023-02-26T11:45:58.808Z,61.08
2023-02-26T11:48:29.694Z,61.21
2023-02-26T11:50:59.547Z,61.35
2023-02-26T11:53:33.063Z,60.76
2023-02-26T11:56:08.609Z,60.78
2023-02-26T11:58:37.797Z,59.01
2023-02-26T12:01:05.532Z,58.95
2023-02-26T12:03:35.454Z,59.67
2023-02-26T12:06:03.090Z,59.76
2023-02-26T12:08:38.573Z,60.33
2023-02-26T12:11:51.389Z,60.41
2023-02-26T12:15:29.748Z,60.51
2023-02-26T12:18:32.378Z,60.35
2023-02-26T12:21:25.495Z,60.05
2023-02-26T12:23:59.430Z,60.18
2023-02-26T12:26:35.660Z,59.83
2023-02-26T12:29:24.040Z,61.92
2023-02-26T12:32:12.697Z,60.88
2023-02-26T12:35:03.676Z,59.00
2023-02-26T12:37:49.183Z,57.64
2023-02-26T12:40:31.147Z,57.51
2023-02-26T12:43:43.297Z,58.23
2023-02-26T12:46:33.158Z,58.38
2023-02-26T12:49:25.745Z,58.20
2023-02-26T12:52:24.955Z,58.48
2023-02-26T12:54:58.659Z,58.18
2023-02-26T12:57:43.668Z,58.43
2023-02-26T13:00:13.550Z,58.62
2023-02-26T13:03:11.050Z,58.59
2023-02-26T13:05:56.477Z,58.87
2023-02-26T13:08:53.271Z,58.32
2023-02-26T13:11:40.231Z,58.42
2023-02-26T13:14:44.916Z,58.41
2023-02-26T13:17:29.761Z,58.23
2023-02-26T13:20:00.274Z,58.74
2023-02-26T13:22:37.519Z,58.95
2023-02-26T13:25:34.137Z,58.75
2023-02-26T13:28:03.241Z,58.77
2023-02-26T13:30:49.193Z,58.22
2023-02-26T13:33:24.562Z,57.84
2023-02-26T13:35:52.982Z,56.98
2023-02-26T13:38:42.906Z,56.86
2023-02-26T13:41:20.886Z,56.30
2023-02-26T13:44:06.220Z,55.74
2023-02-26T13:47:12.081Z,56.16
2023-02-26T13:49:51.019Z,56.54
2023-02-26T13:52:35.548Z,56.41
2023-02-26T13:55:04.679Z,56.62
2023-02-26T13:57:36.617Z,56.50
2023-02-26T14:00:26.539Z,56.68
2023-02-26T14:03:13.275Z,56.46
2023-02-26T14:05:48.975Z,56.72
2023-02-26T14:08:39.401Z,57.34
2023-02-26T14:11:24.780Z,57.04
2023-02-26T14:14:11.102Z,56.36
2023-02-26T14:16:40.711Z,56.01
2023-02-26T14:19:13.748Z,56.35
2023-02-26T14:21:50.091Z,56.68
2023-02-26T14:24:32.446Z,56.00
2023-02-26T14:27:11.417Z,55.07
2023-02-26T14:29:44.020Z,54.59
2023-02-26T14:32:10.931Z,54.43
2023-02-26T14:34:50.883Z,54.53
2023-02-26T14:37:24.609Z,54.21
2023-02-26T14:40:09.044Z,54.13
2023-02-26T14:42:38.644Z,54.22
2023-02-26T14:45:27.359Z,54.64
2023-02-26T14:47:54.992Z,54.21
2023-02-26T14:50:22.990Z,54.12
2023-02-26T14:53:24.028Z,54.25
2023-02-26T14:55:56.979Z,55.00
2023-02-26T14:58:50.081Z,54.80
2023-02-26T15:01:40.371Z,54.79
2023-02-26T15:04:20.377Z,54.86
2023-02-26T15:06:55.709Z,54.71
2023-02-26T15:10:01.284Z,54.54
2023-02-26T15:12:42.819Z,54.35
2023-02-26T15:15:39.797Z,54.25
2023-02-26T15:18:46.151Z,54.43
2023-02-26T15:21:31.535Z,54.47
2023-02-26T15:23:59.854Z,54.28
2023-02-26T15:26:33.038Z,53.86
2023-02-26T15:29:04.142Z,53.67
2023-02-26T15:31:36.388Z,53.86
2023-02-26T15:34:03.884Z,54.08
2023-02-26T15:36:31.754Z,54.15
2023-02-26T15:39:00.893Z,54.15
2023-02-26T15:41:30.172Z,54.36
2023-02-26T15:44:02.533Z,54.41
2023-02-26T15:46:33.796Z,54.23
2023-02-26T15:49:06.999Z,54.28
2023-02-26T15:51:34.160Z,54.17
2023-02-26T15:54:03.393Z,54.80
2023-02-26T15:56:36.832Z,55.17
2023-02-26T15:59:07.848Z,55.03
2023-02-26T16:01:34.873Z,55.64
2023-02-26T16:04:06.150Z,55.58
2023-02-26T16:06:40.673Z,56.00
2023-02-26T16:09:14.616Z,56.40
2023-02-26T16:11:41.969Z,56.39
2023-02-26T16:14:15.917Z,56.63
2023-02-26T16:16:45.818Z,56.75
2023-02-26T16:19:17.431Z,57.20
2023-02-26T16:21:48.273Z,57.88
2023-02-26T16:24:20.906Z,58.65
2023-02-26T16:26:52.825Z,58.98
2023-02-26T16:29:26.280Z,58.94
2023-02-26T16:31:59.158Z,59.32
2023-02-26T16:34:51.284Z,59.04
2023-02-26T16:37:34.556Z,59.07
2023-02-26T16:40:13.426Z,59.33
2023-02-26T16:42:54.710Z,59.45
2023-02-26T16:45:36.887Z,59.91
2023-02-26T16:48:21.618Z,60.02
2023-02-26T16:51:05.565Z,59.96
2023-02-26T16:53:52.965Z,60.20
2023-02-26T16:56:25.566Z,60.26
2023-02-26T16:59:12.046Z,60.56
2023-02-26T17:01:51.201Z,60.42
2023-02-26T17:04:28.990Z,60.38
2023-02-26T17:06:58.409Z,60.54
2023-02-26T17:09:37.991Z,60.58
2023-02-26T17:12:16.632Z,60.71
2023-02-26T17:14:45.816Z,60.67
2023-02-26T17:17:12.598Z,60.90
2023-02-26T17:19:39.434Z,61.23
2023-02-26T17:22:11.700Z,61.14
2023-02-26T17:24:44.374Z,61.52
2023-02-26T17:27:17.186Z,61.57
2023-02-26T17:29:45.795Z,61.57
2023-02-26T17:32:18.279Z,62.08
2023-02-26T17:34:45.085Z,62.17
2023-02-26T17:37:12.649Z,62.19
2023-02-26T17:39:39.399Z,62.32
2023-02-26T17:42:19.472Z,62.35
2023-02-26T17:44:46.203Z,62.54
2023-02-26T17:47:16.717Z,62.79
2023-02-26T17:49:44.332Z,62.95
2023-02-26T17:52:11.063Z,63.00
2023-02-26T17:54:40.470Z,63.17
2023-02-26T17:57:08.052Z,63.39
2023-02-26T17:59:34.778Z,63.29
2023-02-26T18:02:01.564Z,63.45
2023-02-26T18:04:29.626Z,63.80
2023-02-26T18:06:56.442Z,63.75
2023-02-26T18:09:23.286Z,63.63
2023-02-26T18:11:49.992Z,63.82
2023-02-26T18:14:16.677Z,63.95
2023-02-26T18:16:45.453Z,63.95
2023-02-26T18:19:14.169Z,64.05
2023-02-26T18:21:40.959Z,64.23
2023-02-26T18:24:08.075Z,64.18
2023-02-26T18:26:34.797Z,64.43
2023-02-26T18:29:01.543Z,64.40
2023-02-26T18:31:34.953Z,64.63
2023-02-26T18:34:02.713Z,64.62
2023-02-26T18:36:35.664Z,64.69
2023-02-26T18:39:02.605Z,64.81
2023-02-26T18:41:30.385Z,64.49
2023-02-26T18:43:57.232Z,64.92
2023-02-26T18:46:24.488Z,64.93
2023-02-26T18:48:51.466Z,64.91
2023-02-26T18:51:18.246Z,65.01
2023-02-26T18:53:48.173Z,64.87
2023-02-26T18:56:17.512Z,65.13
2023-02-26T18:58:44.379Z,65.47
2023-02-26T19:01:11.180Z,65.65
2023-02-26T19:03:37.930Z,65.40
2023-02-26T19:06:08.902Z,65.62
2023-02-26T19:08:36.411Z,65.84
2023-02-26T19:11:06.410Z,65.80
2023-02-26T19:13:34.605Z,65.78
2023-02-26T19:16:01.384Z,65.87
2023-02-26T19:18:29.036Z,65.97
2023-02-26T19:20:56.110Z,65.89
2023-02-26T19:23:23.509Z,66.30
2023-02-26T19:25:53.689Z,66.34
2023-02-26T19:28:20.793Z,66.38
2023-02-26T19:30:47.605Z,66.56
2023-02-26T19:33:14.557Z,66.50
2023-02-26T19:35:41.568Z,66.61
2023-02-26T19:38:10.037Z,66.95
2023-02-26T19:40:36.845Z,66.96
2023-02-26T19:43:06.310Z,67.11
2023-02-26T19:45:33.071Z,67.11
2023-02-26T19:47:59.802Z,67.21
2023-02-26T19:50:43.387Z,67.02
2023-02-26T19:53:10.614Z,67.14
2023-02-26T19:55:37.438Z,67.38
2023-02-26T19:58:04.312Z,67.29
2023-02-26T20:00:31.266Z,67.57
2023-02-26T20:02:58.133Z,67.47
2023-02-26T20:05:25.042Z,67.90
2023-02-26T20:07:51.971Z,67.95
2023-02-26T20:10:19.230Z,67.70
2023-02-26T20:12:46.671Z,67.81
2023-02-26T20:15:14.150Z,68.11
2023-02-26T20:17:41.050Z,68.00
2023-02-26T20:20:08.620Z,68.07
2023-02-26T20:22:35.314Z,68.03
2023-02-26T20:25:02.277Z,68.28
2023-02-26T20:27:29.048Z,68.43
2023-02-26T20:29:55.816Z,68.50
2023-02-26T20:32:23.729Z,68.82
2023-02-26T20:34:52.093Z,68.69
2023-02-26T20:37:18.825Z,68.99
2023-02-26T20:39:46.385Z,68.99
2023-02-26T20:42:13.857Z,69.07
2023-02-26T20:44:40.644Z,69.05
2023-02-26T20:47:07.777Z,69.12
2023-02-26T20:49:35.077Z,69.55
2023-02-26T20:52:01.927Z,69.33
2023-02-26T20:54:28.732Z,69.54
2023-02-26T20:56:55.584Z,69.58
2023-02-26T20:59:22.707Z,69.51
2023-02-26T21:01:51.553Z,69.52
2023-02-26T21:04:18.390Z,69.89
2023-02-26T21:06:45.373Z,69.77
2023-02-26T21:09:14.186Z,69.84
2023-02-26T21:11:41.897Z,69.93
2023-02-26T21:14:09.599Z,69.87
2023-02-26T21:16:36.969Z,69.86
2023-02-26T21:19:04.620Z,69.87
2023-02-26T21:21:31.801Z,70.01
2023-02-26T21:23:58.678Z,69.92
2023-02-26T21:26:27.354Z,69.91
2023-02-26T21:28:54.188Z,69.94
2023-02-26T21:31:22.052Z,69.63
2023-02-26T21:33:49.557Z,69.86
2023-02-26T21:36:16.948Z,69.96
2023-02-26T21:38:44.053Z,70.33
2023-02-26T21:41:10.924Z,70.15
2023-02-26T21:43:37.660Z,70.44
2023-02-26T21:46:04.634Z,70.55
2023-02-26T21:48:31.861Z,70.67
2023-02-26T21:50:59.871Z,70.55
2023-02-26T21:53:27.682Z,70.93
2023-02-26T21:55:54.874Z,70.87
2023-02-26T21:58:21.663Z,70.64
2023-02-26T22:00:48.636Z,70.95
2023-02-26T22:03:15.371Z,70.81
2023-02-26T22:05:42.109Z,70.97
2023-02-26T22:08:09.367Z,70.92
2023-02-26T22:10:36.478Z,70.97
2023-02-26T22:13:03.368Z,70.93
2023-02-26T22:15:30.073Z,70.98
2023-02-26T22:17:56.767Z,71.25
2023-02-26T22:20:23.662Z,71.01
2023-02-26T22:22:50.343Z,71.24
2023-02-26T22:25:17.102Z,70.85
2023-02-26T22:27:43.877Z,71.15
2023-02-26T22:30:11.406Z,71.22
2023-02-26T22:32:38.112Z,71.05
2023-02-26T22:35:05.653Z,71.11
2023-02-26T22:37:32.934Z,71.21
2023-02-26T22:39:59.698Z,71.38
2023-02-26T22:42:26.390Z,71.15
2023-02-26T22:44:53.075Z,71.22
2023-02-26T22:47:20.542Z,71.18
2023-02-26T22:49:47.460Z,71.24
2023-02-26T22:52:14.366Z,71.43
2023-02-26T22:54:41.764Z,71.60
2023-02-26T22:57:09.134Z,71.62
2023-02-26T22:59:35.947Z,71.57
2023-02-26T23:02:03.101Z,71.64
2023-02-26T23:04:29.875Z,71.48
2023-02-26T23:06:56.698Z,71.71
2023-02-26T23:09:23.585Z,71.79
2023-02-26T23:11:50.444Z,71.78
2023-02-26T23:14:17.827Z,71.89
2023-02-26T23:16:44.833Z,71.66
2023-02-26T23:19:12.141Z,72.04
2023-02-26T23:21:38.929Z,72.09
2023-02-26T23:24:06.048Z,72.26
2023-02-26T23:26:33.084Z,72.32
2023-02-26T23:28:59.920Z,72.38
2023-02-26T23:31:27.048Z,72.33
2023-02-26T23:33:53.947Z,72.48
2023-02-26T23:36:21.213Z,72.60
2023-02-26T23:38:47.885Z,72.88
2023-02-26T23:41:14.623Z,72.93
2023-02-26T23:43:41.380Z,72.98
2023-02-26T23:46:08.219Z,73.21
2023-02-26T23:48:34.979Z,73.32
2023-02-26T23:51:01.832Z,73.27
2023-02-26T23:53:28.544Z,73.45
2023-02-26T23:55:58.906Z,73.52
2023-02-26T23:58:26.889Z,73.50
